Latest Weather Observations for Coldstream

IDV60901

Issued at 11:45 am EST Friday 19 September 2014 (issued every 10 minutes, with the page automatically refreshed every 10 minutes)

About weather observations | Map of Melbourne area stations | Latest observations for Melbourne area | Other Formats
Station Details ID: 086383 Name: COLDSTREAM Lat: -37.72 Lon: 145.41 Height: 83.0 m
Data from the previous 72 hours. | See also: Recent months at Coldstream
Date/Time
EST
Tmp

°C
App
Tmp
°C
Dew
Point
°C
Rel
Hum
%
Delta-T

°C
Wind Press
QNH
hPa
Press
MSL
hPa
Rain
since
9 am
mm
Dir
 
Spd
km/h
Gust
km/h
Spd
kts
Gust
kts
19/11:30am 11.9 10.6 7.8 76 2.0 NE 4 7 2 4 1024.7 1024.8 0.0
19/11:00am 11.6 9.9 8.3 80 1.6 N 7 9 4 5 1025.0 1025.1 0.0
19/10:30am 11.1 9.7 7.4 78 1.8 NNE 4 7 2 4 1025.2 1025.3 0.0
19/10:00am 11.4 10.3 8.4 82 1.5 ENE 4 9 2 5 1025.2 1025.3 0.0
19/09:30am 9.4 7.6 7.2 86 1.0 NNE 6 7 3 4 1025.5 1025.6 0.0
19/09:00am 8.6 6.8 7.1 90 0.7 N 6 9 3 5 1025.5 1025.6 1.2
19/08:30am 9.1 8.5 9.0 99 0.0 E 2 7 1 4 1025.4 1025.5 1.2
19/08:00am 7.9 7.4 7.8 99 0.0 NNW 0 6 0 3 1025.3 1025.4 1.2
19/07:30am 6.8 6.0 6.7 99 0.0 NW 0 0 0 0 1025.1 1025.2 1.2
19/07:00am 6.4 5.6 6.3 99 0.0 CALM 0 0 0 0 1024.9 1025.0 1.2
19/06:30am 6.0 5.1 5.9 99 0.0 CALM 0 0 0 0 1024.7 1024.8 0.8
19/06:00am 5.6 4.6 5.5 99 0.0 CALM 0 0 0 0 1024.4 1024.5 0.8
19/05:30am 6.1 5.2 6.0 99 0.0 CALM 0 0 0 0 1024.1 1024.2 0.8
19/05:00am 5.8 4.8 5.7 99 0.0 CALM 0 0 0 0 1024.1 1024.2 0.8
19/04:30am 5.7 4.7 5.6 99 0.0 CALM 0 0 0 0 1024.0 1024.1 0.8
19/04:00am 5.5 3.1 5.4 99 0.0 S 7 9 4 5 1024.0 1024.1 0.8
19/03:30am 3.9 2.5 3.8 99 0.0 CALM 0 0 0 0 1023.8 1023.9 0.8
19/03:00am 4.8 2.5 4.7 99 0.0 WNW 6 9 3 5 1024.0 1024.1 0.8
19/02:30am 4.1 2.8 4.0 99 0.0 CALM 0 6 0 3 1024.1 1024.2 0.8
19/02:00am 4.2 1.7 3.9 98 0.1 SSW 6 17 3 9 1024.2 1024.3 0.8
19/01:30am 3.9 2.5 3.5 97 0.2 CALM 0 0 0 0 1024.1 1024.2 0.8
19/01:00am 6.1 5.1 5.8 98 0.1 CALM 0 0 0 0 1024.7 1024.8 0.8
19/12:30am 6.7 5.9 6.4 98 0.1 CALM 0 0 0 0 1024.9 1025.0 0.6
19/12:00am 6.7 5.9 6.4 98 0.1 WSW 0 0 0 0 1024.9 1025.0 0.6
 
Date/Time
EST
Tmp

°C
App
Tmp
°C
Dew
Point
°C
Rel
Hum
%
Delta-T

°C
Wind Press
QNH
hPa
Press
MSL
hPa
Rain
since
9 am
mm
Dir
 
Spd
km/h
Gust
km/h
Spd
kts
Gust
kts
18/11:30pm 6.7 5.9 6.4 98 0.1 CALM 0 6 0 3 1025.0 1025.1 0.6
18/11:00pm 5.9 4.5 5.5 97 0.2 S 2 6 1 3 1024.9 1025.0 0.4
18/10:30pm 5.5 4.4 4.9 96 0.3 CALM 0 0 0 0 1025.0 1025.1 0.4
18/10:00pm 5.6 4.5 4.9 95 0.3 CALM 0 0 0 0 1025.0 1025.1 0.4
18/09:30pm 5.3 4.0 4.3 93 0.4 CALM 0 0 0 0 1024.9 1025.0 0.4
18/09:00pm 5.9 4.7 4.4 90 0.6 CALM 0 0 0 0 1024.9 1025.0 0.4
18/08:30pm 7.2 6.1 5.3 88 0.8 CALM 0 0 0 0 1024.7 1024.8 0.4
18/08:00pm 8.5 6.4 5.8 83 1.2 E 6 7 3 4 1024.7 1024.8 0.4
18/07:30pm 9.4 7.0 4.4 71 2.2 SSW 6 7 3 4 1024.5 1024.6 0.4
18/07:00pm 9.8 6.8 4.0 67 2.5 SW 9 15 5 8 1024.1 1024.2 0.4
18/06:30pm 10.2 7.8 5.4 72 2.2 S 7 13 4 7 1023.8 1023.9 0.4
18/06:00pm 10.8 7.3 5.3 69 2.5 SSW 13 24 7 13 1023.7 1023.8 0.4
18/05:30pm 11.4 9.4 6.1 70 2.5 SSW 6 17 3 9 1023.3 1023.4 0.4
18/05:00pm 11.2 7.3 5.3 67 2.7 SW 15 22 8 12 1023.1 1023.2 0.4
18/04:30pm 11.9 7.3 5.8 66 2.9 SSW 19 30 10 16 1022.7 1022.8 0.4
18/04:00pm 12.3 6.7 5.5 63 3.2 WSW 24 35 13 19 1022.3 1022.4 0.4
18/03:30pm 12.7 8.4 5.4 61 3.4 SW 17 26 9 14 1022.3 1022.4 0.4
18/03:00pm 12.8 8.0 5.5 61 3.4 SW 20 33 11 18 1022.3 1022.4 0.4
18/02:30pm 13.7 9.2 7.0 64 3.3 SW 20 33 11 18 1022.3 1022.4 0.4
18/02:00pm 12.3 8.6 6.1 66 2.9 SW 15 28 8 15 1022.1 1022.2 0.4
18/01:30pm 11.3 8.5 8.5 83 1.4 WSW 13 19 7 10 1022.3 1022.4 0.4
18/01:00pm 11.4 9.8 7.9 79 1.7 SW 6 11 3 6 1022.4 1022.5 0.2
18/12:30pm 10.2 7.0 8.6 90 0.8 SW 15 20 8 11 1022.6 1022.7 0.2
18/12:00pm 12.0 8.0 6.5 69 2.6 SW 17 30 9 16 1022.5 1022.6 0.0
18/11:30am 12.2 8.5 8.1 76 2.0 SW 17 28 9 15 1022.6 1022.7 0.0
18/11:00am 10.9 7.2 8.0 82 1.4 SW 17 32 9 17 1022.9 1023.0 0.0
18/10:30am 9.9 6.0 7.0 82 1.4 SW 17 30 9 16 1022.8 1022.9 0.0
18/10:00am 9.8 8.0 8.1 89 0.8 W 7 13 4 7 1022.8 1022.9 0.0
18/09:30am 8.5 6.2 7.4 93 0.5 WNW 9 15 5 8 1022.9 1023.0 0.0
18/09:00am 8.1 6.1 7.2 94 0.4 WNW 7 13 4 7 1022.9 1023.0 6.0
18/08:30am 7.2 4.7 6.5 95 0.3 W 9 13 5 7 1022.7 1022.8 5.8
18/08:00am 7.1 5.2 6.5 96 0.3 NW 6 7 3 4 1022.4 1022.5 5.6
18/07:30am 6.9 6.1 6.3 96 0.3 CALM 0 6 0 3 1022.0 1022.1 5.0
18/07:00am 6.1 4.7 5.7 97 0.2 WNW 2 6 1 3 1021.8 1021.9 5.0
18/06:30am 5.9 2.8 5.5 97 0.2 W 11 13 6 7 1021.3 1021.4 5.0
18/06:00am 5.3 3.0 4.9 97 0.2 ESE 6 9 3 5 1021.1 1021.2 4.8
18/05:30am 5.3 4.1 4.7 96 0.3 CALM 0 0 0 0 1020.7 1020.8 4.8
18/05:00am 5.5 4.3 4.8 95 0.3 CALM 0 0 0 0 1020.4 1020.5 4.8
18/04:30am 6.0 3.8 5.1 94 0.4 W 6 9 3 5 1020.1 1020.2 4.8
18/04:00am 6.4 4.2 5.5 94 0.4 WSW 6 7 3 4 1020.0 1020.1 4.8
18/03:30am 6.3 5.3 5.4 94 0.4 CALM 0 0 0 0 1019.9 1020.0 4.8
18/03:00am 6.3 4.9 5.3 93 0.4 SW 2 6 1 3 1019.7 1019.8 4.4
18/02:30am 6.1 4.6 4.9 92 0.5 NNW 2 6 1 3 1019.7 1019.8 4.0
18/02:00am 5.7 4.1 4.3 91 0.6 W 2 7 1 4 1019.8 1019.9 4.0
18/01:30am 5.9 2.9 4.2 89 0.7 NW 9 13 5 7 1019.9 1020.0 4.0
18/01:00am 6.7 4.2 4.7 87 0.9 N 7 11 4 6 1020.1 1020.2 4.0
18/12:30am 7.0 4.7 5.0 87 0.9 N 6 9 3 5 1020.1 1020.2 4.0
18/12:00am 7.1 4.8 4.9 86 1.0 N 6 7 3 4 1019.9 1020.0 4.0
 
Date/Time
EST
Tmp

°C
App
Tmp
°C
Dew
Point
°C
Rel
Hum
%
Delta-T

°C
Wind Press
QNH
hPa
Press
MSL
hPa
Rain
since
9 am
mm
Dir
 
Spd
km/h
Gust
km/h
Spd
kts
Gust
kts
17/11:30pm 7.0 4.8 5.2 88 0.8 N 6 9 3 5 1019.9 1020.0 4.0
17/11:00pm 6.9 5.1 5.4 90 0.7 N 4 6 2 3 1019.8 1019.9 4.0
17/10:30pm 7.0 5.3 6.1 94 0.4 NNE 4 9 2 5 1019.7 1019.8 4.0
17/10:00pm 6.9 6.0 6.0 94 0.4 CALM 0 6 0 3 1019.6 1019.7 4.0
17/09:30pm 6.9 4.9 6.2 95 0.3 N 6 7 3 4 1019.4 1019.5 4.0
17/09:00pm 7.2 6.4 6.3 94 0.4 CALM 0 0 0 0 1019.1 1019.2 3.8
17/08:30pm 7.2 6.3 6.1 93 0.5 CALM 0 0 0 0 1018.9 1019.0 3.8
17/08:00pm 7.5 5.3 6.1 91 0.6 WSW 7 15 4 8 1018.6 1018.7 3.8
17/07:30pm 7.7 5.6 6.0 89 0.8 WSW 6 11 3 6 1018.4 1018.4 2.8
17/07:00pm 8.3 5.3 5.9 85 1.1 W 11 15 6 8 1018.1 1018.1 2.4
17/06:30pm 8.1 5.6 5.0 81 1.4 WSW 7 11 4 6 1017.6 1017.6 2.4
17/06:00pm 8.5 5.1 6.0 84 1.1 SSW 13 19 7 10 1017.3 1017.3 2.4
17/05:30pm 9.5 7.0 6.6 82 1.4 SW 9 15 5 8 1017.0 1017.0 1.8
17/05:00pm 9.8 8.1 7.4 85 1.1 NW 6 9 3 5 1016.4 1016.4 1.6
17/04:30pm 9.5 7.8 7.6 88 0.9 WSW 6 9 3 5 1016.1 1016.1 1.6
17/04:00pm 9.4 4.8 6.5 82 1.4 SSW 20 41 11 22 1015.9 1015.9 1.4
17/03:36pm 10.6 4.5 6.7 77 1.8 WSW 28 46 15 25 1015.4 1015.4 1.4
17/03:30pm 10.6 3.7 6.6 76 1.9 WSW 32 46 17 25 1015.5 1015.5 1.4
17/03:00pm 11.2 4.4 5.1 66 2.8 WSW 30 43 16 23 1014.7 1014.7 1.2
17/02:30pm 13.3 6.4 2.8 49 4.7 WSW 28 50 15 27 1014.1 1014.1 1.2
17/02:00pm 12.5 7.4 4.0 56 3.8 WSW 20 41 11 22 1013.9 1014.0 1.2
17/01:30pm 13.3 7.0 5.5 59 3.7 WSW 28 50 15 27 1013.7 1013.8 1.2
17/01:02pm 12.7 6.5 6.3 65 3.0 WSW 28 52 15 28 1013.7 1013.8 1.2
17/01:00pm 13.7 8.5 7.2 65 3.2 WSW 24 48 13 26 1013.6 1013.7 1.2
17/12:30pm 11.5 7.4 7.8 78 1.8 W 19 30 10 16 1013.9 1014.0 1.2
17/12:00pm 11.5 3.7 6.8 73 2.2 W 37 59 20 32 1014.1 1014.1 0.6
17/11:51am 12.8 6.0 5.2 60 3.5 W 30 56 16 30 1013.6 1013.7 0.6
17/11:30am 12.8 7.5 6.8 67 2.9 WSW 24 39 13 21 1013.7 1013.8 0.6
17/11:00am 12.1 7.9 8.2 77 1.9 W 20 26 11 14 1013.8 1013.9 0.6
17/10:30am 11.8 7.9 7.3 74 2.2 W 17 30 9 16 1013.9 1014.0 0.2
17/10:00am 11.2 6.8 7.5 78 1.8 W 20 28 11 15 1014.1 1014.1 0.0
17/09:30am 11.7 7.3 7.4 75 2.1 W 20 26 11 14 1013.9 1014.0 0.0
17/09:00am 11.0 8.0 7.5 79 1.7 NW 13 20 7 11 1013.9 1014.0 2.0
17/08:30am 9.9 8.3 8.0 88 0.9 N 6 9 3 5 1014.2 1014.2 -
17/08:00am 9.2 7.0 7.8 91 0.7 NNW 9 15 5 8 1013.9 1014.0 -
17/07:30am 8.7 6.4 7.6 93 0.5 NW 9 15 5 8 1013.7 1013.8 -
17/07:00am 8.5 5.5 7.7 95 0.4 WNW 13 24 7 13 1013.5 1013.6 -
17/06:30am 8.4 6.3 8.3 99 0.0 WNW 9 15 5 8 1013.4 1013.5 -
17/06:00am 8.0 6.4 7.9 99 0.0 N 6 7 3 4 1013.3 1013.4 -
17/05:30am 7.6 7.0 7.5 99 0.0 CALM 0 0 0 0 1013.4 1013.5 -
17/05:00am 7.4 6.4 7.3 99 0.0 SSW 2 7 1 4 1013.2 1013.3 -
17/04:30am 6.3 5.4 6.2 99 0.0 CALM 0 0 0 0 1013.0 1013.1 -
17/04:00am 6.7 5.9 6.6 99 0.0 CALM 0 0 0 0 1012.8 1012.9 -
17/03:30am 6.8 6.0 6.7 99 0.0 CALM 0 0 0 0 1012.9 1013.0 -
17/03:00am 6.5 5.7 6.4 99 0.0 CALM 0 0 0 0 1013.0 1013.1 0.0
17/02:30am 7.1 6.4 7.0 99 0.0 CALM 0 0 0 0 1013.0 1013.1 -
17/02:00am 7.5 6.9 7.4 99 0.0 CALM 0 0 0 0 1013.0 1013.1 -
17/01:30am 6.9 6.2 6.8 99 0.0 CALM 0 0 0 0 1013.2 1013.3 -
17/01:00am 6.6 5.8 6.5 99 0.0 CALM 0 0 0 0 1013.4 1013.5 -
17/12:30am 6.3 5.4 6.2 99 0.0 CALM 0 0 0 0 1013.6 1013.7 -
17/12:00am 5.6 4.5 5.3 98 0.1 CALM 0 0 0 0 1013.6 1013.7 -
 
Date/Time
EST
Tmp

°C
App
Tmp
°C
Dew
Point
°C
Rel
Hum
%
Delta-T

°C
Wind Press
QNH
hPa
Press
MSL
hPa
Rain
since
9 am
mm
Dir
 
Spd
km/h
Gust
km/h
Spd
kts
Gust
kts
16/11:30pm 5.4 3.9 5.1 98 0.1 SSW 2 6 1 3 1013.8 1013.9 -
16/11:00pm 5.2 3.6 4.6 96 0.3 SSW 2 6 1 3 1014.2 1014.2 -
16/10:30pm 5.4 4.2 4.7 95 0.3 CALM 0 0 0 0 1014.1 1014.1 -
16/10:00pm 6.0 4.9 5.0 93 0.4 CALM 0 0 0 0 1013.8 1013.9 -
16/09:30pm 7.5 6.6 6.1 91 0.6 CALM 0 0 0 0 1013.7 1013.8 -
16/09:00pm 9.0 8.3 7.1 88 0.9 CALM 0 0 0 0 1013.6 1013.7 0.2
16/08:30pm 10.3 9.8 7.9 85 1.2 CALM 0 0 0 0 1013.5 1013.6 -
16/08:00pm 10.9 8.8 8.1 83 1.4 SSW 9 15 5 8 1013.3 1013.4 -
16/07:30pm 11.6 9.2 8.6 82 1.5 SSW 11 20 6 11 1012.8 1012.9 -
16/07:00pm 11.9 8.0 8.7 81 1.6 SSW 19 39 10 21 1012.5 1012.6 -
16/06:30pm 11.6 9.1 9.7 88 1.0 SW 13 19 7 10 1012.2 1012.3 -
16/06:00pm 11.8 8.5 9.5 86 1.2 SW 17 28 9 15 1012.1 1012.2 -
16/05:30pm 12.0 9.1 9.7 86 1.2 SW 15 22 8 12 1011.7 1011.8 -
16/05:00pm 12.2 9.0 9.8 85 1.2 SW 17 24 9 13 1011.3 1011.4 -
16/04:30pm 12.3 9.2 10.2 87 1.1 SW 17 26 9 14 1010.9 1011.0 -
16/04:00pm 12.3 7.3 9.7 84 1.3 WSW 26 39 14 21 1010.6 1010.7 -
16/03:44pm 12.6 7.3 10.0 84 1.3 WSW 28 46 15 25 1010.4 1010.5 -
16/03:30pm 12.5 8.4 10.2 86 1.2 SW 22 37 12 20 1010.3 1010.4 -
16/03:00pm 12.8 - 11.5 92 0.7 - - - - - 1009.6 1009.7 -
16/02:30pm 13.4 10.1 11.5 88 1.0 W 20 22 11 12 1009.4 1009.5 0.4
16/02:00pm 13.9 12.8 11.8 87 1.1 WNW 9 11 5 6 1009.2 1009.3 0.0
16/01:30pm 13.8 13.0 11.7 87 1.1 W 7 13 4 7 1009.2 1009.3 0.0
16/01:00pm 13.5 11.9 11.4 87 1.1 W 11 17 6 9 1009.4 1009.5 0.0
16/12:30pm 13.7 10.9 11.4 86 1.2 W 17 20 9 11 1009.5 1009.6 0.0
16/12:00pm 13.5 12.3 11.6 88 1.0 NW 9 15 5 8 1009.6 1009.7 0.0

Latest Capital City Observations: Canberra | Sydney | Melbourne | Brisbane | Adelaide | Perth | Hobart | Darwin

Other Formats:

Comma delimited format used in spreadsheet applications
http://www.bom.gov.au/fwo/IDV60901/IDV60901.94864.axf

JavaScript Object Notation format (JSON) in row-major order
http://www.bom.gov.au/fwo/IDV60901/IDV60901.94864.json